Time;durP1;ratioP1;P1;durP2;ratioP2;P2;SDS_P1;SDS_P2;PMS_P1;PMS_P2;Temp;Humidity;BMP_temperature;BMP_pressure;BME280_temperature;BME280_humidity;BME280_pressure;Samples;Min_cycle;Max_cycle;Signal;HPM_P1;HPM_P2
2023/03/14 00:01:46;;;;;;;0.70;0.70;;;10.60;92.90;;;;;;5043664;28;20240;-86
2023/03/14 00:04:34;;;;;;;0.80;0.80;;;10.50;93.10;;;;;;5036622;28;20277;-86
2023/03/14 00:07:02;;;;;;;0.90;0.88;;;10.40;93.50;;;;;;5033790;28;20257;-85
2023/03/14 00:09:34;;;;;;;1.38;1.10;;;10.40;93.60;;;;;;5044782;28;20566;-86
2023/03/14 00:12:03;;;;;;;2.13;1.90;;;10.50;93.80;;;;;;5016675;28;20197;-86
2023/03/14 00:17:13;;;;;;;1.85;1.75;;;10.50;93.90;;;;;;5048531;28;20206;-85
2023/03/14 00:19:41;;;;;;;1.35;0.95;;;10.60;94.10;;;;;;5010359;28;20198;-86
2023/03/14 00:22:09;;;;;;;3.67;2.75;;;10.80;93.30;;;;;;5049173;28;20218;-86
2023/03/14 00:24:36;;;;;;;2.50;2.20;;;10.90;93.40;;;;;;5027850;28;20672;-86
2023/03/14 00:27:04;;;;;;;0.80;0.80;;;10.80;93.20;;;;;;5048963;28;20201;-85
2023/03/14 00:29:35;;;;;;;1.20;0.90;;;10.80;93.20;;;;;;5032583;28;20276;-87
2023/03/14 00:32:02;;;;;;;1.27;1.13;;;10.70;93.20;;;;;;5022556;28;20650;-85
2023/03/14 00:34:30;;;;;;;1.33;1.10;;;10.80;93.30;;;;;;5057503;28;20198;-86
2023/03/14 00:36:57;;;;;;;0.82;0.80;;;10.80;93.30;;;;;;5051181;28;20286;-85
2023/03/14 00:39:24;;;;;;;1.30;1.20;;;10.80;93.20;;;;;;5029903;28;20206;-86
2023/03/14 00:41:51;;;;;;;1.02;1.00;;;10.70;93.20;;;;;;5045839;28;20218;-87
2023/03/14 00:44:17;;;;;;;1.45;1.20;;;10.60;93.70;;;;;;5016819;28;20213;-86
2023/03/14 00:46:46;;;;;;;0.80;0.80;;;10.60;93.60;;;;;;5026197;28;20198;-86
2023/03/14 00:49:13;;;;;;;1.42;0.80;;;10.60;93.70;;;;;;5047261;28;20228;-86
2023/03/14 00:51:40;;;;;;;1.10;0.93;;;10.60;93.80;;;;;;5027440;28;20198;-85
2023/03/14 00:54:07;;;;;;;1.20;0.95;;;10.60;93.60;;;;;;5049687;28;20213;-86
2023/03/14 00:56:34;;;;;;;1.48;0.80;;;10.70;93.70;;;;;;5050278;28;20206;-86
2023/03/14 00:59:00;;;;;;;1.85;0.70;;;10.70;93.70;;;;;;5044582;28;20980;-88
2023/03/14 01:01:27;;;;;;;2.25;0.80;;;10.80;93.60;;;;;;5050332;28;20215;-85
2023/03/14 01:03:57;;;;;;;0.65;0.65;;;10.80;93.50;;;;;;5041140;28;20205;-86
2023/03/14 01:06:26;;;;;;;1.02;0.70;;;10.90;93.20;;;;;;5050733;28;20198;-85
2023/03/14 01:08:53;;;;;;;0.80;0.80;;;11.00;93.60;;;;;;5046334;28;20228;-86
2023/03/14 01:11:23;;;;;;;1.67;0.70;;;10.90;93.60;;;;;;5028379;28;21015;-86
2023/03/14 01:13:51;;;;;;;1.17;0.82;;;10.90;94.10;;;;;;5050585;28;20590;-86
2023/03/14 01:16:19;;;;;;;3.00;0.85;;;10.90;94.80;;;;;;5019971;28;20202;-85
2023/03/14 01:19:04;;;;;;;1.13;0.75;;;10.80;95.10;;;;;;5050465;28;20674;-91
2023/03/14 01:21:39;;;;;;;1.80;0.80;;;10.70;95.90;;;;;;5049793;28;20245;-86
2023/03/14 01:24:07;;;;;;;2.50;0.93;;;10.60;96.50;;;;;;5036378;28;20668;-86
2023/03/14 01:26:40;;;;;;;1.13;0.80;;;10.50;97.40;;;;;;5032541;28;20202;-86
2023/03/14 01:29:08;;;;;;;1.35;0.88;;;10.40;98.30;;;;;;5053240;28;20237;-87
2023/03/14 01:31:36;;;;;;;1.58;0.80;;;10.30;99.30;;;;;;5019111;28;20198;-88
2023/03/14 01:34:05;;;;;;;1.73;0.65;;;10.30;99.70;;;;;;5036616;28;20560;-87
2023/03/14 01:36:32;;;;;;;1.08;0.80;;;10.20;99.90;;;;;;5033589;28;20654;-88
2023/03/14 01:38:59;;;;;;;2.38;0.95;;;10.10;99.90;;;;;;5051013;28;20198;-88
2023/03/14 01:41:27;;;;;;;1.30;0.90;;;10.00;99.90;;;;;;5049481;28;20194;-87
2023/03/14 01:43:54;;;;;;;1.60;0.95;;;10.00;99.90;;;;;;5049841;28;20201;-88
2023/03/14 01:46:31;;;;;;;2.60;0.90;;;10.00;99.90;;;;;;5049165;28;20202;-87
2023/03/14 01:49:06;;;;;;;1.45;1.10;;;10.00;99.90;;;;;;5049789;28;20206;-86
2023/03/14 01:51:40;;;;;;;2.42;0.93;;;9.90;99.90;;;;;;5055825;28;20551;-86
2023/03/14 01:54:13;;;;;;;2.75;1.13;;;9.90;99.90;;;;;;5052141;28;20198;-86
2023/03/14 01:56:42;;;;;;;4.00;1.52;;;9.90;99.90;;;;;;5049764;28;20194;-86
2023/03/14 01:59:12;;;;;;;2.80;0.90;;;9.90;99.90;;;;;;5053860;28;20212;-86
2023/03/14 02:01:43;;;;;;;3.97;1.10;;;9.90;99.90;;;;;;5056196;28;20197;-86
2023/03/14 02:04:13;;;;;;;2.45;1.20;;;9.90;99.90;;;;;;5054275;28;20198;-87
2023/03/14 02:06:49;;;;;;;1.80;1.00;;;9.80;99.90;;;;;;5051956;28;20197;-88
2023/03/14 02:09:16;;;;;;;2.13;0.80;;;9.80;99.90;;;;;;5049144;28;20226;-90
2023/03/14 02:11:44;;;;;;;1.30;0.95;;;9.80;99.90;;;;;;5049861;28;20827;-88
2023/03/14 02:14:20;;;;;;;1.10;0.80;;;9.90;99.90;;;;;;5055021;28;20198;-87
2023/03/14 02:16:47;;;;;;;1.02;0.80;;;9.90;99.90;;;;;;5049127;28;20190;-88
2023/03/14 02:19:21;;;;;;;1.38;0.77;;;9.90;99.90;;;;;;5046022;28;20202;-87
2023/03/14 02:21:54;;;;;;;0.70;0.70;;;9.90;99.90;;;;;;5026799;28;20257;-88
2023/03/14 02:24:27;;;;;;;1.90;0.65;;;9.80;99.90;;;;;;5035030;28;20230;-88
2023/03/14 02:27:13;;;;;;;0.70;0.70;;;9.70;99.90;;;;;;5031618;28;20236;-88
2023/03/14 02:29:46;;;;;;;0.60;0.60;;;9.70;99.90;;;;;;5047617;28;20702;-87
2023/03/14 02:32:15;;;;;;;1.10;0.80;;;9.60;99.90;;;;;;5048841;28;20206;-87
2023/03/14 02:34:44;;;;;;;1.38;0.82;;;9.50;99.90;;;;;;5031753;28;20201;-88
2023/03/14 02:37:12;;;;;;;1.05;0.75;;;9.50;99.90;;;;;;5030752;28;20653;-87
2023/03/14 02:39:44;;;;;;;1.02;0.85;;;9.40;99.90;;;;;;5050580;28;20210;-88
2023/03/14 02:42:14;;;;;;;0.40;0.40;;;9.40;99.90;;;;;;5033775;28;20734;-88
2023/03/14 02:44:50;;;;;;;0.80;0.57;;;9.30;99.90;;;;;;5050906;28;20206;-88
2023/03/14 02:47:20;;;;;;;0.45;0.45;;;9.30;99.90;;;;;;5039490;28;20204;-89
2023/03/14 02:49:48;;;;;;;0.98;0.50;;;9.30;99.90;;;;;;5033088;28;20248;-88
2023/03/14 02:52:15;;;;;;;0.60;0.60;;;9.30;99.90;;;;;;5030895;28;20643;-88
2023/03/14 02:54:42;;;;;;;0.73;0.50;;;9.40;99.90;;;;;;5028054;28;20213;-87
2023/03/14 02:57:09;;;;;;;0.77;0.70;;;9.40;99.90;;;;;;5051422;28;20205;-88
2023/03/14 02:59:37;;;;;;;1.65;0.70;;;9.40;99.90;;;;;;5050990;28;20206;-87
2023/03/14 03:02:04;;;;;;;1.00;0.60;;;9.40;99.90;;;;;;5044622;28;20205;-88
2023/03/14 03:04:31;;;;;;;1.50;0.60;;;9.40;99.90;;;;;;5050594;28;20206;-87
2023/03/14 03:06:57;;;;;;;0.50;0.50;;;9.30;99.90;;;;;;5049765;28;20201;-89
2023/03/14 03:09:24;;;;;;;1.05;0.60;;;9.30;99.90;;;;;;5026767;28;20226;-87
2023/03/14 03:11:53;;;;;;;0.80;0.52;;;9.30;99.90;;;;;;5049828;28;20284;-87
2023/03/14 03:14:20;;;;;;;1.02;0.73;;;9.30;99.90;;;;;;5049551;28;20601;-88
2023/03/14 03:16:49;;;;;;;0.70;0.70;;;9.30;99.90;;;;;;5052674;28;20211;-86
2023/03/14 03:19:17;;;;;;;0.65;0.65;;;9.20;99.90;;;;;;5052675;28;20197;-87
2023/03/14 03:21:44;;;;;;;0.63;0.63;;;9.20;99.90;;;;;;5031095;28;20347;-91
2023/03/14 03:24:11;;;;;;;0.55;0.52;;;9.20;99.90;;;;;;5029617;28;20302;-86
2023/03/14 03:26:38;;;;;;;0.60;0.60;;;9.20;99.90;;;;;;5015299;28;20263;-87
2023/03/14 03:29:05;;;;;;;0.50;0.50;;;9.20;99.90;;;;;;5032831;28;20221;-87
2023/03/14 03:31:32;;;;;;;0.77;0.70;;;9.10;99.90;;;;;;5046215;28;20573;-88
2023/03/14 03:34:01;;;;;;;1.00;0.70;;;9.10;99.90;;;;;;5048205;28;20205;-88
2023/03/14 03:36:28;;;;;;;0.50;0.50;;;9.00;99.90;;;;;;5049889;28;20198;-86
2023/03/14 03:38:55;;;;;;;0.50;0.50;;;9.00;99.90;;;;;;5050713;28;20201;-87
2023/03/14 03:41:22;;;;;;;0.70;0.70;;;8.90;99.90;;;;;;5051133;28;20557;-87
2023/03/14 03:43:49;;;;;;;1.23;0.57;;;8.90;99.90;;;;;;5032598;28;20209;-87
2023/03/14 03:46:15;;;;;;;1.00;0.40;;;8.90;99.90;;;;;;5037342;28;20205;-87
2023/03/14 03:48:43;;;;;;;4.00;0.85;;;8.90;99.90;;;;;;5051500;28;20229;-86
2023/03/14 03:51:14;;;;;;;0.60;0.60;;;8.80;99.90;;;;;;5017388;28;20198;-86
2023/03/14 03:53:41;;;;;;;0.50;0.50;;;8.80;99.90;;;;;;5051287;28;20194;-86
2023/03/14 03:56:10;;;;;;;0.32;0.32;;;8.80;99.90;;;;;;5027980;28;20201;-86
2023/03/14 03:58:38;;;;;;;0.55;0.40;;;8.70;99.90;;;;;;5049149;28;20202;-87
2023/03/14 04:01:06;;;;;;;0.63;0.63;;;8.70;99.90;;;;;;5032989;28;20536;-87
2023/03/14 04:03:34;;;;;;;0.65;0.40;;;8.70;99.90;;;;;;5026604;28;20225;-86
2023/03/14 04:06:01;;;;;;;0.80;0.70;;;8.70;99.90;;;;;;5031019;28;20202;-86
2023/03/14 04:08:30;;;;;;;0.65;0.50;;;8.70;99.90;;;;;;5048946;28;20218;-86
2023/03/14 04:10:58;;;;;;;0.60;0.60;;;8.80;99.90;;;;;;5050464;28;20197;-85
2023/03/14 04:13:24;;;;;;;0.40;0.40;;;8.80;99.90;;;;;;5050922;28;20194;-86
2023/03/14 04:15:52;;;;;;;0.88;0.57;;;8.80;99.90;;;;;;5031111;28;20661;-89
2023/03/14 04:18:19;;;;;;;0.60;0.60;;;8.80;99.90;;;;;;5045103;28;20201;-88
2023/03/14 04:20:46;;;;;;;0.50;0.50;;;8.80;99.90;;;;;;5029098;28;20557;-85
2023/03/14 04:23:13;;;;;;;0.70;0.50;;;8.70;99.90;;;;;;5046067;28;20221;-85
2023/03/14 04:25:41;;;;;;;0.30;0.30;;;8.60;99.90;;;;;;5029529;28;20209;-86
2023/03/14 04:28:08;;;;;;;0.88;0.57;;;8.70;99.90;;;;;;5024063;28;20654;-85
2023/03/14 04:30:35;;;;;;;0.50;0.50;;;8.70;99.90;;;;;;5047238;28;20198;-86
2023/03/14 04:33:02;;;;;;;0.43;0.43;;;8.70;99.90;;;;;;5049672;28;20202;-86
2023/03/14 04:35:31;;;;;;;1.20;0.50;;;8.70;99.90;;;;;;5032488;28;20205;-86
2023/03/14 04:37:59;;;;;;;0.80;0.80;;;8.60;99.90;;;;;;5051600;28;20623;-86
2023/03/14 04:40:26;;;;;;;0.40;0.40;;;8.60;99.90;;;;;;5050780;28;20225;-86
2023/03/14 04:42:54;;;;;;;0.47;0.47;;;8.60;99.90;;;;;;5055114;28;20201;-85
2023/03/14 04:45:21;;;;;;;0.50;0.50;;;8.60;99.90;;;;;;5053323;28;20197;-88
2023/03/14 04:47:48;;;;;;;1.25;0.55;;;8.60;99.90;;;;;;5052841;28;20197;-86
2023/03/14 04:50:15;;;;;;;0.40;0.40;;;8.60;99.90;;;;;;5052654;28;20222;-85
2023/03/14 04:52:42;;;;;;;0.40;0.40;;;8.60;99.40;;;;;;5032830;28;20237;-86
2023/03/14 04:55:09;;;;;;;0.40;0.40;;;8.60;99.50;;;;;;5048971;28;20194;-86
2023/03/14 04:57:36;;;;;;;1.90;0.50;;;8.60;99.10;;;;;;5033578;28;20245;-86
2023/03/14 05:00:07;;;;;;;0.40;0.40;;;8.50;99.30;;;;;;5049723;28;20201;-87
2023/03/14 05:02:34;;;;;;;0.50;0.50;;;8.50;99.50;;;;;;5035792;28;20255;-86
2023/03/14 05:05:01;;;;;;;0.80;0.60;;;8.60;99.40;;;;;;5032692;28;20201;-85
2023/03/14 05:07:28;;;;;;;0.50;0.50;;;8.50;99.30;;;;;;5030979;28;20244;-85
2023/03/14 05:09:55;;;;;;;0.57;0.50;;;8.50;99.30;;;;;;5052640;28;20221;-86
2023/03/14 05:12:23;;;;;;;0.85;0.60;;;8.50;99.20;;;;;;5054258;28;20277;-85
2023/03/14 05:14:50;;;;;;;0.60;0.60;;;8.60;99.20;;;;;;5034535;28;20202;-86
2023/03/14 05:17:19;;;;;;;0.63;0.43;;;8.50;99.30;;;;;;5036088;28;20201;-85
2023/03/14 05:19:46;;;;;;;0.32;0.32;;;8.50;99.20;;;;;;5020730;28;20202;-85
2023/03/14 05:22:13;;;;;;;0.50;0.50;;;8.50;99.10;;;;;;5036197;28;20221;-85
2023/03/14 05:24:40;;;;;;;0.45;0.45;;;8.50;99.10;;;;;;5044066;28;20205;-86
2023/03/14 05:27:07;;;;;;;0.70;0.70;;;8.50;99.30;;;;;;5050784;28;20197;-86
2023/03/14 05:29:34;;;;;;;0.40;0.40;;;8.50;99.30;;;;;;5045359;28;20402;-86
2023/03/14 05:32:00;;;;;;;0.50;0.50;;;8.40;99.20;;;;;;5050296;28;20202;-86
2023/03/14 05:34:30;;;;;;;0.60;0.60;;;8.50;99.50;;;;;;5035226;28;20194;-86
2023/03/14 05:36:57;;;;;;;0.60;0.60;;;8.40;99.40;;;;;;5053373;28;20217;-85
2023/03/14 05:39:24;;;;;;;0.40;0.38;;;8.40;99.50;;;;;;5056917;28;20542;-85
2023/03/14 05:41:51;;;;;;;0.70;0.70;;;8.40;99.40;;;;;;5035095;28;20194;-86
2023/03/14 05:44:18;;;;;;;0.40;0.40;;;8.40;99.10;;;;;;5053203;28;20198;-86
2023/03/14 05:46:45;;;;;;;0.43;0.40;;;8.50;99.00;;;;;;5050781;28;20234;-85
2023/03/14 05:49:12;;;;;;;1.45;0.50;;;8.50;99.00;;;;;;5032587;28;20712;-87
2023/03/14 05:51:41;;;;;;;1.70;0.60;;;8.50;99.00;;;;;;5032945;28;20198;-85
2023/03/14 05:54:08;;;;;;;0.63;0.63;;;8.50;99.10;;;;;;5033695;28;20242;-85
2023/03/14 05:56:35;;;;;;;0.88;0.63;;;8.50;98.70;;;;;;5049736;28;20205;-85
2023/03/14 05:59:03;;;;;;;0.82;0.68;;;8.50;98.80;;;;;;5049239;28;20704;-85
2023/03/14 06:01:33;;;;;;;0.68;0.52;;;8.50;98.70;;;;;;5029171;28;20731;-87
2023/03/14 06:03:59;;;;;;;0.63;0.50;;;8.50;98.70;;;;;;5052363;28;20194;-86
2023/03/14 06:06:26;;;;;;;0.60;0.60;;;8.50;98.80;;;;;;5053369;28;20535;-87
2023/03/14 06:11:58;;;;;;;0.90;0.82;;;8.40;99.30;;;;;;4991870;28;20347;-86
2023/03/14 06:14:25;;;;;;;0.60;0.60;;;8.50;99.10;;;;;;5032499;28;20226;-89
2023/03/14 06:16:52;;;;;;;0.63;0.63;;;8.60;98.90;;;;;;5048793;28;20205;-87
2023/03/14 06:19:19;;;;;;;0.70;0.70;;;8.50;98.90;;;;;;5035330;28;20204;-89
2023/03/14 06:21:47;;;;;;;1.35;0.60;;;8.60;99.10;;;;;;5035176;28;20226;-90
2023/03/14 06:24:15;;;;;;;0.57;0.57;;;8.70;98.70;;;;;;5052241;28;20213;-88
2023/03/14 06:26:42;;;;;;;0.80;0.80;;;8.70;98.50;;;;;;5051647;28;20475;-88
2023/03/14 06:29:13;;;;;;;0.55;0.50;;;8.70;98.60;;;;;;5050682;28;20225;-89
2023/03/14 06:31:41;;;;;;;0.73;0.70;;;8.60;98.40;;;;;;5047624;28;20194;-93
2023/03/14 06:34:08;;;;;;;0.90;0.80;;;8.70;98.50;;;;;;5046232;28;20206;-89
2023/03/14 06:36:35;;;;;;;1.20;0.95;;;8.70;98.70;;;;;;5043810;28;20201;-88
2023/03/14 06:39:02;;;;;;;1.00;0.90;;;8.80;98.50;;;;;;5044019;28;20202;-88
2023/03/14 06:41:30;;;;;;;1.42;0.98;;;8.90;98.30;;;;;;5048939;28;20202;-88
2023/03/14 06:43:58;;;;;;;1.00;0.90;;;8.90;98.10;;;;;;5051014;28;20654;-87
2023/03/14 06:46:25;;;;;;;1.20;0.90;;;9.10;98.20;;;;;;5027275;28;20216;-88
2023/03/14 06:48:53;;;;;;;0.80;0.80;;;9.20;97.80;;;;;;5030208;28;20206;-88
2023/03/14 06:51:20;;;;;;;0.70;0.70;;;9.40;97.70;;;;;;5047944;28;20198;-88
2023/03/14 06:53:48;;;;;;;0.80;0.60;;;9.50;97.70;;;;;;5029864;28;20238;-89
2023/03/14 06:56:15;;;;;;;0.77;0.70;;;9.60;96.70;;;;;;5025968;28;20210;-87
2023/03/14 06:58:44;;;;;;;0.57;0.57;;;9.50;97.30;;;;;;5035568;28;20252;-86
2023/03/14 07:01:22;;;;;;;2.40;1.08;;;9.50;97.10;;;;;;5049251;28;20201;-95
2023/03/14 07:03:54;;;;;;;1.05;0.60;;;9.40;97.00;;;;;;5057084;28;20225;-90
2023/03/14 07:18:17;;;;;;;1.33;0.88;;;9.10;97.90;;;;;;5009775;28;20199;-93
2023/03/14 07:23:50;;;;;;;1.42;0.93;;;9.20;97.90;;;;;;5034051;28;20212;-92
2023/03/14 07:38:32;;;;;;;1.33;0.57;;;9.30;97.80;;;;;;4935886;29;20669;-90
2023/03/14 08:33:06;;;;;;;0.82;0.82;;;10.50;89.80;;;;;;5001131;28;20220;-90
2023/03/14 09:26:19;;;;;;;3.75;0.75;;;10.90;86.60;;;;;;4979343;28;20207;-92
2023/03/14 09:28:47;;;;;;;1.15;0.82;;;10.90;85.00;;;;;;5034652;28;20542;-93
2023/03/14 09:31:14;;;;;;;2.22;1.00;;;11.10;81.70;;;;;;5087262;28;20594;-92
2023/03/14 09:45:15;;;;;;;2.35;1.23;;;10.80;82.90;;;;;;5034239;28;20245;-91
2023/03/14 09:59:31;;;;;;;0.70;0.68;;;11.00;83.10;;;;;;5071664;28;20675;-91
2023/03/14 10:07:43;;;;;;;0.77;0.77;;;11.10;83.00;;;;;;5075903;28;20372;-90
2023/03/14 10:20:56;;;;;;;0.85;0.70;;;11.40;79.90;;;;;;5040605;28;20198;-93
2023/03/14 10:33:31;;;;;;;0.93;0.60;;;12.60;53.80;;;;;;5042439;28;20268;-94
2023/03/14 10:39:43;;;;;;;1.15;1.00;;;14.40;37.50;;;;;;5058708;28;20233;-90
2023/03/14 11:08:38;;;;;;;0.75;0.70;;;13.30;32.90;;;;;;5077130;28;20230;-91
2023/03/14 13:44:04;;;;;;;0.85;0.50;;;12.60;39.10;;;;;;5084771;28;20334;-90
2023/03/14 13:46:34;;;;;;;1.45;0.73;;;12.20;42.30;;;;;;5059270;28;20241;-91
2023/03/14 13:57:49;;;;;;;2.20;0.55;;;11.30;53.40;;;;;;5020400;28;20256;-92
2023/03/14 14:00:37;;;;;;;2.90;0.50;;;11.00;67.30;;;;;;5030314;28;20209;-92
2023/03/14 15:40:51;;;;;;;0.80;0.80;;;8.50;95.20;;;;;;4958472;28;20944;-92
2023/03/14 15:45:59;;;;;;;0.60;0.60;;;8.20;96.40;;;;;;4971643;28;20208;-91
2023/03/14 15:56:32;;;;;;;0.82;0.80;;;7.70;98.50;;;;;;4977967;28;20230;-92
2023/03/14 15:58:59;;;;;;;1.53;0.80;;;7.50;97.70;;;;;;4975058;28;20717;-90
2023/03/14 16:01:26;;;;;;;2.13;0.77;;;7.40;96.50;;;;;;4969314;28;20212;-91
2023/03/14 16:06:36;;;;;;;1.07;0.93;;;7.00;95.50;;;;;;4980966;28;20207;-92
2023/03/14 16:09:24;;;;;;;2.20;1.20;;;6.90;95.70;;;;;;4961307;28;20950;-91
2023/03/14 16:14:33;;;;;;;1.30;0.90;;;6.80;93.80;;;;;;4984015;28;20208;-90
2023/03/14 16:17:00;;;;;;;2.17;1.20;;;6.90;93.30;;;;;;4987665;28;20216;-91
2023/03/14 16:19:28;;;;;;;0.90;0.90;;;7.00;93.10;;;;;;4986619;28;20258;-91
2023/03/14 16:24:33;;;;;;;2.47;1.00;;;7.30;92.20;;;;;;5237795;23;20235;-90
2023/03/14 16:29:42;;;;;;;1.30;1.20;;;7.40;91.90;;;;;;4990818;28;20207;-90
2023/03/14 17:13:46;;;;;;;1.37;0.87;;;7.40;77.60;;;;;;5002034;28;20730;-90
2023/03/14 17:16:13;;;;;;;1.20;1.00;;;7.40;72.30;;;;;;4992943;28;20197;-90
2023/03/14 17:18:40;;;;;;;2.23;0.90;;;7.30;75.70;;;;;;4987782;28;20203;-87
2023/03/14 17:21:07;;;;;;;2.67;1.20;;;7.30;72.60;;;;;;4987500;28;20200;-91
2023/03/14 17:23:35;;;;;;;1.00;0.90;;;7.30;72.10;;;;;;4988478;28;20234;-91
2023/03/14 17:26:02;;;;;;;1.97;1.00;;;7.30;68.80;;;;;;4986314;28;20204;-92
2023/03/14 17:28:37;;;;;;;3.50;0.98;;;7.30;67.00;;;;;;4989155;28;20215;-90
2023/03/14 17:31:11;;;;;;;1.33;0.90;;;7.30;64.80;;;;;;4985465;28;20251;-91
2023/03/14 17:36:27;;;;;;;1.23;0.90;;;7.20;58.10;;;;;;4995761;28;20231;-89
2023/03/14 17:41:50;;;;;;;3.00;0.97;;;7.00;59.60;;;;;;4960578;28;20331;-91
2023/03/14 17:44:24;;;;;;;2.47;1.20;;;7.00;57.70;;;;;;4962676;28;20201;-94
2023/03/14 17:58:57;;;;;;;2.88;1.40;;;6.70;55.70;;;;;;4992854;28;20212;-86
2023/03/14 18:01:24;;;;;;;2.47;1.17;;;6.60;54.80;;;;;;4990644;28;20331;-88
2023/03/14 18:03:55;;;;;;;3.57;1.23;;;6.60;55.40;;;;;;4989956;28;20204;-88
2023/03/14 18:06:28;;;;;;;1.30;1.10;;;6.60;52.70;;;;;;4988508;28;20671;-89
2023/03/14 18:08:57;;;;;;;2.40;1.30;;;6.60;52.60;;;;;;4989010;28;20652;-87
2023/03/14 18:11:25;;;;;;;3.53;1.30;;;6.60;52.20;;;;;;4992679;28;20247;-87
2023/03/14 18:21:57;;;;;;;1.73;1.27;;;6.50;53.00;;;;;;5003904;28;20245;-93
2023/03/14 18:29:48;;;;;;;2.83;1.53;;;6.30;56.80;;;;;;5004421;28;20271;-90
2023/03/14 18:37:40;;;;;;;2.70;1.40;;;6.30;59.70;;;;;;4974626;28;20195;-93
2023/03/14 18:40:12;;;;;;;2.38;1.20;;;6.30;59.20;;;;;;4974712;28;20621;-92
2023/03/14 18:45:39;;;;;;;1.70;1.10;;;6.30;59.80;;;;;;4955292;28;20199;-94
2023/03/14 18:59:32;;;;;;;3.60;1.60;;;6.00;70.80;;;;;;4990169;28;20208;-94
2023/03/14 19:02:13;;;;;;;2.87;1.90;;;6.00;70.70;;;;;;4999863;28;20200;-93
2023/03/14 19:04:40;;;;;;;2.77;1.67;;;6.00;75.10;;;;;;4990344;28;20199;-92
2023/03/14 19:07:07;;;;;;;4.73;1.90;;;6.00;75.00;;;;;;4972190;28;20201;-93
2023/03/14 19:12:15;;;;;;;3.43;1.50;;;5.90;76.50;;;;;;4990330;28;20255;-93
2023/03/14 19:18:09;;;;;;;2.97;2.00;;;6.10;77.10;;;;;;4986346;28;20222;-89
2023/03/14 19:20:36;;;;;;;3.70;1.50;;;6.20;77.10;;;;;;4990302;28;20652;-89
2023/03/14 19:23:03;;;;;;;1.47;1.00;;;6.20;76.10;;;;;;4989414;28;20219;-88
2023/03/14 19:25:31;;;;;;;5.47;1.57;;;6.30;71.20;;;;;;4987650;28;20204;-91
2023/03/14 19:27:58;;;;;;;2.33;1.63;;;6.30;71.20;;;;;;4991988;28;20663;-89
2023/03/14 19:30:28;;;;;;;1.88;1.08;;;6.50;71.30;;;;;;4993677;28;20203;-91
2023/03/14 19:33:15;;;;;;;2.33;1.30;;;6.50;71.30;;;;;;4982143;28;20973;-91
2023/03/14 19:35:43;;;;;;;2.15;1.10;;;6.60;71.50;;;;;;4991172;28;20548;-91
2023/03/14 19:43:37;;;;;;;1.13;1.00;;;6.60;70.80;;;;;;5000560;28;20207;-91
2023/03/14 19:48:48;;;;;;;3.37;1.40;;;6.60;71.40;;;;;;4971926;28;20242;-92
2023/03/14 19:51:16;;;;;;;3.33;1.50;;;6.60;71.40;;;;;;4990315;28;20263;-92
2023/03/14 19:56:45;;;;;;;5.40;1.67;;;6.60;71.40;;;;;;4974349;28;20630;-92
2023/03/14 20:07:37;;;;;;;2.72;1.60;;;6.60;75.50;;;;;;4985225;28;20200;-91
2023/03/14 20:10:04;;;;;;;4.47;1.52;;;6.60;75.60;;;;;;4986639;28;20205;-91
2023/03/14 20:15:13;;;;;;;2.90;1.60;;;6.60;77.40;;;;;;4955255;28;20284;-91
2023/03/14 20:20:43;;;;;;;2.45;1.60;;;6.50;79.80;;;;;;4986082;28;20282;-91
2023/03/14 20:23:11;;;;;;;2.30;1.35;;;6.60;79.50;;;;;;4991630;28;20224;-90
2023/03/14 20:25:38;;;;;;;3.78;1.60;;;6.60;80.20;;;;;;4977503;28;20196;-91
2023/03/14 20:28:05;;;;;;;3.58;1.73;;;6.60;79.40;;;;;;4988760;28;20206;-91
2023/03/14 20:30:33;;;;;;;1.98;1.58;;;6.70;79.50;;;;;;4984782;28;20200;-90
2023/03/14 20:38:26;;;;;;;3.47;1.70;;;6.90;78.10;;;;;;4989521;28;20226;-92
2023/03/14 20:40:53;;;;;;;6.07;2.00;;;6.90;77.60;;;;;;4991896;28;20203;-93
2023/03/14 20:43:20;;;;;;;7.65;2.00;;;6.80;78.70;;;;;;4988345;28;20326;-90
2023/03/14 20:45:53;;;;;;;3.75;1.60;;;6.80;79.50;;;;;;4986997;28;20200;-90
2023/03/14 20:48:31;;;;;;;3.67;1.73;;;6.80;81.60;;;;;;4994640;28;20204;-93
2023/03/14 20:50:58;;;;;;;3.45;1.73;;;6.80;86.00;;;;;;5011627;28;20187;-91
2023/03/14 20:53:25;;;;;;;3.63;1.60;;;6.70;90.00;;;;;;4997022;28;20207;-92
2023/03/14 20:55:55;;;;;;;2.83;1.40;;;6.60;91.50;;;;;;4998491;28;20203;-89
2023/03/14 20:58:22;;;;;;;3.00;1.73;;;6.20;92.60;;;;;;4999609;28;20196;-90
2023/03/14 21:00:52;;;;;;;2.77;1.50;;;6.00;93.90;;;;;;4997771;28;20204;-90
2023/03/14 21:03:21;;;;;;;1.23;1.10;;;5.80;95.00;;;;;;4993994;28;20239;-92
2023/03/14 21:05:49;;;;;;;1.83;1.60;;;5.70;95.20;;;;;;5003028;28;20271;-90
2023/03/14 21:08:17;;;;;;;2.07;1.50;;;5.60;95.60;;;;;;5011133;28;20378;-91
2023/03/14 21:10:47;;;;;;;2.23;1.43;;;5.50;96.40;;;;;;5001883;28;20255;-90
2023/03/14 21:13:15;;;;;;;2.77;1.50;;;5.40;96.70;;;;;;4995965;28;20235;-90
2023/03/14 21:15:42;;;;;;;3.10;1.57;;;5.40;96.70;;;;;;4986414;28;20222;-92
2023/03/14 21:18:10;;;;;;;1.73;1.53;;;5.30;96.80;;;;;;5004651;28;20207;-90
2023/03/14 21:20:39;;;;;;;3.37;1.40;;;5.20;97.20;;;;;;4993288;28;20209;-89
2023/03/14 21:23:07;;;;;;;2.47;1.50;;;5.30;97.10;;;;;;4999865;28;20263;-88
2023/03/14 21:25:35;;;;;;;3.23;1.67;;;5.20;97.10;;;;;;5001208;28;20224;-90
2023/03/14 21:28:03;;;;;;;2.10;1.70;;;5.20;97.20;;;;;;5001712;28;20207;-89
2023/03/14 21:30:30;;;;;;;4.70;1.67;;;5.20;97.10;;;;;;5007328;28;20283;-89
2023/03/14 21:32:57;;;;;;;2.53;1.67;;;5.20;97.20;;;;;;4997693;28;20312;-92
2023/03/14 21:35:24;;;;;;;2.73;1.80;;;5.10;97.00;;;;;;5001019;28;20200;-89
2023/03/14 21:37:52;;;;;;;5.10;1.63;;;5.00;97.20;;;;;;4999293;28;20212;-91
2023/03/14 21:40:20;;;;;;;2.27;1.60;;;5.00;97.10;;;;;;4994849;28;20915;-90
2023/03/14 21:42:46;;;;;;;2.67;1.63;;;5.00;97.20;;;;;;4998292;28;20216;-89
2023/03/14 21:48:01;;;;;;;2.70;1.83;;;5.00;96.90;;;;;;5010902;28;20204;-90
2023/03/14 21:50:28;;;;;;;3.57;1.50;;;4.90;97.00;;;;;;5011745;28;20208;-89
2023/03/14 21:52:56;;;;;;;1.97;1.40;;;4.90;96.80;;;;;;4995103;28;20238;-89
2023/03/14 21:55:24;;;;;;;2.63;1.60;;;4.80;96.70;;;;;;4992998;28;20204;-89
2023/03/14 21:57:52;;;;;;;1.60;1.40;;;4.90;96.40;;;;;;4995968;28;20200;-89
2023/03/14 22:00:20;;;;;;;2.23;1.23;;;4.80;96.30;;;;;;4994398;28;20199;-89
2023/03/14 22:02:51;;;;;;;2.30;1.47;;;4.80;96.00;;;;;;4995108;28;20219;-90
2023/03/14 22:05:20;;;;;;;1.20;1.10;;;4.80;95.90;;;;;;4996450;28;20208;-89
2023/03/14 22:07:52;;;;;;;6.27;1.50;;;4.80;95.90;;;;;;4991321;28;20204;-89
2023/03/14 22:10:20;;;;;;;3.33;1.60;;;4.80;95.40;;;;;;4994709;28;20207;-89
2023/03/14 22:12:49;;;;;;;2.60;1.40;;;4.70;95.30;;;;;;5007407;28;20200;-90
2023/03/14 22:15:16;;;;;;;2.00;1.63;;;4.80;95.00;;;;;;4999124;28;20211;-88
2023/03/14 22:17:43;;;;;;;4.37;1.57;;;4.80;95.00;;;;;;4991856;28;20196;-89
2023/03/14 22:20:12;;;;;;;3.50;1.50;;;4.70;95.00;;;;;;4992423;28;20695;-88
2023/03/14 22:22:40;;;;;;;4.70;1.90;;;4.70;95.00;;;;;;4988057;28;20573;-89
2023/03/14 22:25:07;;;;;;;3.73;1.43;;;4.60;95.00;;;;;;4998112;28;20206;-89
2023/03/14 22:27:36;;;;;;;2.93;1.30;;;4.60;95.00;;;;;;4997483;28;20199;-89
2023/03/14 22:30:03;;;;;;;2.33;1.50;;;4.60;95.00;;;;;;4992886;28;20561;-88
2023/03/14 22:32:30;;;;;;;2.43;1.53;;;4.60;95.00;;;;;;4985885;28;20216;-89
2023/03/14 22:34:57;;;;;;;2.03;1.50;;;4.60;95.00;;;;;;4996157;28;20703;-88
2023/03/14 22:37:24;;;;;;;3.43;1.70;;;4.70;94.90;;;;;;4996003;28;20226;-89
2023/03/14 22:39:51;;;;;;;2.73;1.40;;;4.70;94.60;;;;;;4993987;28;20307;-88
2023/03/14 22:42:18;;;;;;;1.60;1.00;;;4.70;95.00;;;;;;4990786;28;20227;-88
2023/03/14 22:44:46;;;;;;;2.47;1.20;;;4.70;95.20;;;;;;4990632;28;20743;-90
2023/03/14 22:47:15;;;;;;;1.73;1.17;;;4.70;94.70;;;;;;4989534;28;20208;-88
2023/03/14 22:49:42;;;;;;;2.20;1.30;;;4.70;94.80;;;;;;4994816;28;20205;-90
2023/03/14 22:52:10;;;;;;;3.17;1.20;;;4.60;95.00;;;;;;4994507;28;20228;-89
2023/03/14 22:54:37;;;;;;;2.17;1.30;;;4.70;94.50;;;;;;4995840;28;20207;-88
2023/03/14 22:57:04;;;;;;;2.50;1.33;;;4.80;93.80;;;;;;4994719;28;20267;-88
2023/03/14 22:59:31;;;;;;;4.23;1.40;;;4.80;94.10;;;;;;4995615;28;20204;-88
2023/03/14 23:01:59;;;;;;;3.50;1.40;;;4.80;93.20;;;;;;4991463;28;20215;-88
2023/03/14 23:04:26;;;;;;;2.57;1.33;;;4.80;93.30;;;;;;4993804;28;20203;-89
2023/03/14 23:06:53;;;;;;;3.20;1.50;;;4.90;93.30;;;;;;4992078;28;20203;-88
2023/03/14 23:09:20;;;;;;;2.83;1.10;;;4.90;93.30;;;;;;4991926;28;20208;-89
2023/03/14 23:11:47;;;;;;;3.13;1.37;;;4.90;93.20;;;;;;4996722;28;20212;-88
2023/03/14 23:14:13;;;;;;;1.23;1.10;;;5.00;93.00;;;;;;4994305;28;20683;-88
2023/03/14 23:16:41;;;;;;;1.53;1.30;;;5.00;92.40;;;;;;4973321;28;20258;-88
2023/03/14 23:19:09;;;;;;;3.77;1.47;;;4.90;92.60;;;;;;4988253;28;20219;-88
2023/03/14 23:21:36;;;;;;;3.23;1.23;;;4.80;93.10;;;;;;4987594;28;20228;-88
2023/03/14 23:24:04;;;;;;;2.17;1.20;;;4.80;93.40;;;;;;4994806;28;20211;-88
2023/03/14 23:26:34;;;;;;;3.43;1.30;;;4.70;93.10;;;;;;5004443;28;20200;-88
2023/03/14 23:29:04;;;;;;;2.23;1.20;;;4.60;93.40;;;;;;4990121;28;20249;-88
2023/03/14 23:31:31;;;;;;;1.63;1.10;;;4.60;93.50;;;;;;4992884;28;20204;-88